Camp Point, Illinois
Current Conditions -  °F | °C
As of 5:54 PM on Wednesday 22 Oct 2014 (Local Time) from KUIN Reporting Station
Clear Clear  
Wind Chill: 58°   Ceiling: Unl
Heat Index: 58°   Visibility: 10mi
Dew Point: 40°   Wind: 8mph
Humidity: 51%   Direction: 130°SE
Pressure: 30.19"   Gusts: NA
Location:  40.04°N, 91.07°W
Report Text: KUIN 222254Z AUTO 13007KT 10SM CLR 14/04 A3019 RMK AO2 SLP223 T01440044
Loading
Personal Weather Stations






























Interactive Weather Map
Tropical Storm Tracking
New forecast layout! Learn more

10-Day Weather Forecast

Advertisements
Track Severe Weather on mobile